Greenville, SC (29615)

12:11 PM EST on February 08, 2016 (GMT -0500)
Haywood Rd | | Change Station
CLOSE
Current Station
Personal Weather Station
Location: Greenville, SC
Elevation: 974 ft
Nearby Weather Stations

Elev 974 ft 34.87 °N, 82.32 °W | Updated 4 seconds ago

Overcast
Overcast
46.7 °F
Feels Like 47 °F
N
0.0
Wind Variable Wind from West
Gusts 3.1 mph

Today
High -- | Low -- °F
--% Chance of Precip.
Yesterday
High -- | Low -- °F
Precip. -- in
Pressure 29.75 in
Visibility 10.0 miles
Clouds Few 6000 ft
Scattered Clouds 7000 ft
Overcast 9500 ft
Windchill 47 °F
Dew Point 26 °F
Humidity 44%
Rainfall 0.00 in
Snow Depth Not available.
7:22 AM 6:04 PM
New Moon, 0% visible
METAR KGMU 081653Z 23011G19KT 10SM FEW060 SCT070 OVC095 09/M03 A2974 RMK AO2 SLP072 T00891033
Pressure 29.75 in
Visibility 10.0 miles
Clouds Few 6000 ft
Scattered Clouds 7000 ft
Overcast 9500 ft
Windchill 47 °F
Dew Point 26 °F
Humidity 44%
Rainfall 0.00 in
Snow Depth Not available.
7:22 AM 6:04 PM
New Moon, 0% visible
METAR KGMU 081653Z 23011G19KT 10SM FEW060 SCT070 OVC095 09/M03 A2974 RMK AO2 SLP072 T00891033

10-Day Weather Forecast

Almanac

Astronomy

Feb. 08, 2016 Rise Set
Actual Time
Civil Twilight
Nautical Twilight
Astronomical Twilight
Moon
Length of Visible Light
Length of Day
Tomorrow will be .
, % of the Moon is Illuminated

Today's Extremes

State Highs State Lows

Community

WunderPhotos

Upload Photos

1,891,471 photos uploaded!

WunderBlog® & News

Nearby

Air Quality

  Air Quality AQ Index Pollutant
Not available.

Snow Depth

Station Depth Elevation

Earthquake Activity

City Distance Mag. Time & Date
Minimum magnitude displayed is 2.5.

Coastal Water Temperatures

Place Temperature

Stations

Nearby Weather Stations

Station Location Temp. Windchill Dew Point Humidity Wind Precip. Elev Updated Type
                   

Watches & Warnings

There are currently no watches in effect.